KLSV/LSV METAR and TAF weather

Enter ICAO airport designator
Station Type Date Time Source
KLSV METAR 2019/10/15 02:58 UTC NOAA

KLSV 150258Z 00000KT 10SM CLR 21/M03 A2993 RMK AO2A SLP126 T02081030 53011 $


Station Type Date Time Source
KLSV Decoded METAR 2019/10/15 02:58 UTC NOAA

Nellis Air Force Base, NV, United States (KLSV) 36-14N 115-02W
Oct 14, 2019 - 10:58 PM EDT / 2019.10.15 0258 UTC
Wind: Calm:0
Visibility: 10 mile(s):0
Sky conditions: clear
Temperature: 69.4 F (20.8 C)
Dew Point: 26.6 F (-3.0 C)
Relative Humidity: 19%
Pressure (altimeter): 29.93 in. Hg (1013 hPa)
Pressure tendency: 0.03 inches (1.1 hPa) higher than three hours ago
ob: KLSV 150258Z 00000KT 10SM CLR 21/M03 A2993 RMK AO2A SLP126 T02081030 53011
cycle: 3

Station Type Date Time Source
KLSV TAF 2019/10/14 15:58 UTC NOAA

TAF KLSV 141500Z 1415/1521 VRB06KT 9999 FEW250 QNH2992INS
BECMG 1417/1418 VRB06KT 9999 SKC QNH2986INS TX27/1422Z TN16/1512Z

Example: see airport list